createdAt,value
2023-03-02T00:00:47.564Z,15.32
2023-03-02T00:02:22.615Z,16.10
2023-03-02T00:03:58.992Z,13.95
2023-03-02T00:05:32.244Z,15.07
2023-03-02T00:07:08.034Z,15.52
2023-03-02T00:08:40.264Z,15.70
2023-03-02T00:10:11.853Z,14.57
2023-03-02T00:11:43.535Z,14.55
2023-03-02T00:13:15.458Z,15.88
2023-03-02T00:14:47.047Z,14.73
2023-03-02T00:16:18.867Z,15.52
2023-03-02T00:17:50.723Z,14.85
2023-03-02T00:19:22.314Z,15.15
2023-03-02T00:20:53.956Z,14.48
2023-03-02T00:22:25.582Z,15.45
2023-03-02T00:23:57.485Z,13.82
2023-03-02T00:25:28.998Z,14.98
2023-03-02T00:27:00.636Z,15.60
2023-03-02T00:28:33.158Z,14.35
2023-03-02T00:30:06.294Z,14.68
2023-03-02T00:31:38.396Z,13.77
2023-03-02T00:33:10.114Z,14.93
2023-03-02T00:34:41.714Z,14.52
2023-03-02T00:36:17.808Z,13.85
2023-03-02T00:37:49.543Z,14.85
2023-03-02T00:39:21.114Z,14.93
2023-03-02T00:40:52.694Z,14.20
2023-03-02T00:42:24.381Z,15.48
2023-03-02T00:43:56.186Z,15.45
2023-03-02T00:45:27.882Z,14.27
2023-03-02T00:46:59.631Z,13.98
2023-03-02T00:48:31.244Z,13.95
2023-03-02T00:50:04.570Z,15.60
2023-03-02T00:51:36.136Z,15.13
2023-03-02T00:53:09.306Z,15.20
2023-03-02T00:54:40.909Z,15.63
2023-03-02T00:56:12.725Z,14.75
2023-03-02T00:57:55.155Z,16.77
2023-03-02T00:59:31.693Z,15.15
2023-03-02T01:01:13.518Z,15.23
2023-03-02T01:02:50.535Z,14.48
2023-03-02T01:04:22.168Z,14.75
2023-03-02T01:05:56.289Z,14.90
2023-03-02T01:07:28.570Z,16.00
2023-03-02T01:09:00.359Z,14.50
2023-03-02T01:10:33.707Z,14.48
2023-03-02T01:12:09.259Z,14.38
2023-03-02T01:13:40.837Z,16.30
2023-03-02T01:15:12.848Z,14.55
2023-03-02T01:16:44.576Z,14.77
2023-03-02T01:18:16.345Z,13.75
2023-03-02T01:19:48.438Z,14.68
2023-03-02T01:21:20.025Z,14.13
2023-03-02T01:22:51.739Z,14.20
2023-03-02T01:24:23.709Z,15.07
2023-03-02T01:25:55.321Z,15.35
2023-03-02T01:27:26.939Z,15.88
2023-03-02T01:28:58.616Z,14.93
2023-03-02T01:30:30.214Z,17.75
2023-03-02T01:32:02.189Z,14.80
2023-03-02T01:33:34.128Z,14.13
2023-03-02T01:35:06.158Z,13.40
2023-03-02T01:36:37.803Z,14.45
2023-03-02T01:38:09.592Z,14.40
2023-03-02T01:39:41.510Z,14.73
2023-03-02T01:41:14.815Z,15.85
2023-03-02T01:42:52.749Z,14.02
2023-03-02T01:44:42.388Z,15.82
2023-03-02T01:46:18.134Z,15.80
2023-03-02T01:47:53.827Z,15.68
2023-03-02T01:49:25.647Z,13.60
2023-03-02T01:51:04.350Z,14.85
2023-03-02T01:52:38.441Z,15.68
2023-03-02T01:54:17.349Z,15.55
2023-03-02T01:55:49.172Z,14.35
2023-03-02T01:57:25.794Z,14.65
2023-03-02T01:59:02.465Z,14.60
2023-03-02T02:00:38.304Z,14.13
2023-03-02T02:02:12.585Z,14.38
2023-03-02T02:03:46.917Z,14.45
2023-03-02T02:05:22.910Z,15.98
2023-03-02T02:07:00.664Z,15.88
2023-03-02T02:08:32.854Z,15.82
2023-03-02T02:10:05.282Z,13.68
2023-03-02T02:11:36.960Z,15.85
2023-03-02T02:13:11.509Z,16.38
2023-03-02T02:14:43.912Z,14.18
2023-03-02T02:16:16.043Z,14.43
2023-03-02T02:17:48.452Z,15.23
2023-03-02T02:19:58.341Z,15.23
2023-03-02T02:21:30.625Z,12.48
2023-03-02T02:23:17.529Z,12.95
2023-03-02T02:24:58.718Z,14.02
2023-03-02T02:26:38.629Z,14.02
2023-03-02T02:28:23.287Z,13.82
2023-03-02T02:29:58.210Z,14.77
2023-03-02T02:31:44.889Z,13.30
2023-03-02T02:33:23.656Z,14.55
2023-03-02T02:35:03.859Z,13.85
2023-03-02T02:36:40.593Z,14.60
2023-03-02T02:38:19.690Z,13.52
2023-03-02T02:39:51.873Z,14.88
2023-03-02T02:41:30.812Z,14.70
2023-03-02T02:43:02.738Z,13.75
2023-03-02T02:44:34.264Z,15.20
2023-03-02T02:46:05.930Z,14.55
2023-03-02T02:47:38.074Z,14.98
2023-03-02T02:49:25.376Z,13.35
2023-03-02T02:51:02.941Z,16.17
2023-03-02T02:52:34.988Z,14.00
2023-03-02T02:54:06.578Z,14.18
2023-03-02T02:55:42.696Z,14.02
2023-03-02T02:57:19.103Z,15.10
2023-03-02T02:58:53.887Z,14.93
2023-03-02T03:00:26.184Z,16.00
2023-03-02T03:01:58.572Z,13.25
2023-03-02T03:03:33.729Z,14.77
2023-03-02T03:05:14.624Z,14.82
2023-03-02T03:06:59.869Z,14.57
2023-03-02T03:08:43.575Z,14.75
2023-03-02T03:10:40.052Z,14.20
2023-03-02T03:12:22.129Z,14.20
2023-03-02T03:14:15.576Z,14.23
2023-03-02T03:15:49.175Z,14.38
2023-03-02T03:17:21.045Z,14.75
2023-03-02T03:19:05.589Z,14.55
2023-03-02T03:20:37.325Z,15.70
2023-03-02T03:22:11.908Z,14.90
2023-03-02T03:23:45.040Z,13.90
2023-03-02T03:25:16.845Z,14.40
2023-03-02T03:26:54.204Z,15.88
2023-03-02T03:28:26.138Z,14.82
2023-03-02T03:29:57.877Z,15.25
2023-03-02T03:31:29.496Z,16.52
2023-03-02T03:33:01.954Z,16.23
2023-03-02T03:34:40.637Z,14.70
2023-03-02T03:36:18.071Z,16.10
2023-03-02T03:37:49.837Z,17.38
2023-03-02T03:39:22.884Z,17.55
2023-03-02T03:40:55.393Z,16.55
2023-03-02T03:42:27.369Z,16.95
2023-03-02T03:44:00.702Z,15.77
2023-03-02T03:45:34.049Z,14.95
2023-03-02T03:47:05.927Z,15.30
2023-03-02T03:48:38.437Z,15.57
2023-03-02T03:50:10.881Z,14.98
2023-03-02T03:51:43.012Z,14.85
2023-03-02T03:53:14.684Z,15.32
2023-03-02T03:54:46.558Z,15.55
2023-03-02T03:56:18.143Z,15.95
2023-03-02T03:57:49.941Z,13.65
2023-03-02T03:59:24.338Z,16.48
2023-03-02T04:01:00.782Z,14.93
2023-03-02T04:02:32.411Z,15.65
2023-03-02T04:04:05.674Z,15.10
2023-03-02T04:05:37.273Z,15.23
2023-03-02T04:07:09.594Z,15.15
2023-03-02T04:08:41.961Z,15.25
2023-03-02T04:10:13.730Z,14.98
2023-03-02T04:11:49.328Z,15.05
2023-03-02T04:13:21.368Z,14.85
2023-03-02T04:14:53.254Z,14.13
2023-03-02T04:16:24.952Z,16.00
2023-03-02T04:17:56.716Z,15.18
2023-03-02T04:19:28.960Z,15.20
2023-03-02T04:21:02.546Z,16.42
2023-03-02T04:22:34.198Z,15.05
2023-03-02T04:24:07.172Z,15.68
2023-03-02T04:25:38.811Z,14.68
2023-03-02T04:27:18.880Z,16.02
2023-03-02T04:28:50.912Z,14.65
2023-03-02T04:30:25.959Z,16.17
2023-03-02T04:31:58.326Z,15.15
2023-03-02T04:33:31.361Z,14.05
2023-03-02T04:35:03.471Z,16.30
2023-03-02T04:36:38.650Z,15.75
2023-03-02T04:38:13.782Z,16.60
2023-03-02T04:39:50.107Z,16.52
2023-03-02T04:41:21.909Z,16.42
2023-03-02T04:42:53.432Z,15.30
2023-03-02T04:44:24.951Z,15.35
2023-03-02T04:45:56.504Z,15.73
2023-03-02T04:47:28.122Z,13.88
2023-03-02T04:49:00.216Z,15.45
2023-03-02T04:50:31.872Z,14.13
2023-03-02T04:52:04.409Z,15.50
2023-03-02T04:53:36.052Z,16.10
2023-03-02T04:55:08.058Z,16.10
2023-03-02T04:56:40.143Z,15.57
2023-03-02T04:58:11.913Z,15.43
2023-03-02T04:59:43.468Z,16.15
2023-03-02T05:01:17.542Z,16.92
2023-03-02T05:02:49.135Z,16.98
2023-03-02T05:04:21.344Z,16.15
2023-03-02T05:05:52.966Z,14.85
2023-03-02T05:07:24.583Z,15.23
2023-03-02T05:08:59.802Z,15.50
2023-03-02T05:10:31.581Z,15.43
2023-03-02T05:12:03.338Z,16.65
2023-03-02T05:13:35.369Z,15.55
2023-03-02T05:15:07.408Z,15.95
2023-03-02T05:16:41.227Z,15.35
2023-03-02T05:18:13.387Z,16.05
2023-03-02T05:19:45.049Z,14.93
2023-03-02T05:21:17.626Z,15.75
2023-03-02T05:22:49.327Z,12.68
2023-03-02T05:24:20.917Z,14.52
2023-03-02T05:25:54.733Z,14.45
2023-03-02T05:27:26.300Z,14.23
2023-03-02T05:28:58.060Z,14.55
2023-03-02T05:30:30.997Z,15.43
2023-03-02T05:32:02.705Z,16.77
2023-03-02T05:33:34.793Z,16.08
2023-03-02T05:35:06.995Z,13.98
2023-03-02T05:36:39.307Z,14.85
2023-03-02T05:38:11.721Z,14.18
2023-03-02T05:39:43.301Z,14.82
2023-03-02T05:41:15.247Z,15.85
2023-03-02T05:42:46.880Z,15.77
2023-03-02T05:44:18.532Z,15.07
2023-03-02T05:45:50.132Z,14.82
2023-03-02T05:47:21.731Z,14.93
2023-03-02T05:48:53.731Z,15.70
2023-03-02T05:50:25.347Z,15.57
2023-03-02T05:51:57.128Z,15.50
2023-03-02T05:53:29.861Z,15.85
2023-03-02T05:55:01.888Z,15.77
2023-03-02T05:56:33.821Z,13.45
2023-03-02T05:58:12.897Z,16.05
2023-03-02T05:59:46.426Z,16.83
2023-03-02T06:01:18.048Z,16.52
2023-03-02T06:02:49.770Z,16.00
2023-03-02T06:04:21.454Z,15.25
2023-03-02T06:05:53.183Z,13.73
2023-03-02T06:07:24.883Z,14.38
2023-03-02T06:08:56.501Z,16.02
2023-03-02T06:10:28.436Z,15.25
2023-03-02T06:12:00.099Z,14.07
2023-03-02T06:13:31.807Z,15.00
2023-03-02T06:15:04.874Z,14.85
2023-03-02T06:16:37.301Z,15.43
2023-03-02T06:18:08.943Z,14.50
2023-03-02T06:19:40.514Z,14.65
2023-03-02T06:21:12.090Z,14.90
2023-03-02T06:22:46.010Z,14.85
2023-03-02T06:24:17.694Z,15.05
2023-03-02T06:25:49.411Z,14.43
2023-03-02T06:27:21.557Z,15.10
2023-03-02T06:28:54.012Z,15.32
2023-03-02T06:30:27.571Z,15.90
2023-03-02T06:31:59.274Z,15.85
2023-03-02T06:33:31.368Z,16.70
2023-03-02T06:35:05.774Z,14.60
2023-03-02T06:36:40.120Z,15.18
2023-03-02T06:38:11.994Z,15.18
2023-03-02T06:39:43.555Z,14.85
2023-03-02T06:41:15.492Z,16.25
2023-03-02T06:42:47.294Z,18.02
2023-03-02T06:44:19.153Z,15.75
2023-03-02T06:45:51.067Z,16.98
2023-03-02T06:47:23.522Z,16.35
2023-03-02T06:48:55.192Z,16.15
2023-03-02T06:50:28.256Z,14.73
2023-03-02T06:51:59.763Z,14.80
2023-03-02T06:53:31.313Z,14.52
2023-03-02T06:55:03.807Z,16.92
2023-03-02T06:56:35.683Z,14.68
2023-03-02T06:58:07.310Z,15.68
2023-03-02T06:59:38.964Z,15.38
2023-03-02T07:01:10.627Z,14.98
2023-03-02T07:02:42.619Z,16.00
2023-03-02T07:04:14.205Z,15.70
2023-03-02T07:05:46.459Z,16.90
2023-03-02T07:07:18.174Z,16.35
2023-03-02T07:08:49.797Z,16.45
2023-03-02T07:10:21.470Z,16.23
2023-03-02T07:11:53.162Z,15.98
2023-03-02T07:13:25.213Z,15.40
2023-03-02T07:14:57.067Z,15.05
2023-03-02T07:16:28.940Z,15.85
2023-03-02T07:18:00.603Z,15.00
2023-03-02T07:19:32.245Z,16.30
2023-03-02T07:21:04.068Z,17.33
2023-03-02T07:22:36.121Z,15.35
2023-03-02T07:24:08.258Z,15.90
2023-03-02T07:25:39.928Z,16.10
2023-03-02T07:27:11.593Z,14.95
2023-03-02T07:28:44.450Z,16.38
2023-03-02T07:30:18.973Z,15.85
2023-03-02T07:31:56.996Z,16.15
2023-03-02T07:33:29.157Z,15.73
2023-03-02T07:35:00.938Z,14.20
2023-03-02T07:36:32.517Z,17.63
2023-03-02T07:38:04.115Z,15.65
2023-03-02T07:39:35.658Z,16.80
2023-03-02T07:41:10.393Z,14.68
2023-03-02T07:42:42.144Z,15.98
2023-03-02T07:44:13.985Z,16.45
2023-03-02T07:45:45.955Z,16.60
2023-03-02T07:47:17.504Z,14.38
2023-03-02T07:48:49.183Z,15.80
2023-03-02T07:50:20.905Z,14.80
2023-03-02T07:51:52.666Z,15.57
2023-03-02T07:53:24.547Z,15.57
2023-03-02T07:54:56.575Z,15.88
2023-03-02T07:56:28.222Z,15.90
2023-03-02T07:57:59.881Z,14.80
2023-03-02T07:59:31.753Z,14.75
2023-03-02T08:01:04.484Z,14.90
2023-03-02T08:02:36.281Z,15.07
2023-03-02T08:04:08.081Z,14.98
2023-03-02T08:05:39.714Z,15.18
2023-03-02T08:07:11.360Z,13.82
2023-03-02T08:08:43.000Z,14.30
2023-03-02T08:10:14.870Z,14.70
2023-03-02T08:11:47.901Z,15.50
2023-03-02T08:13:19.761Z,15.77
2023-03-02T08:14:51.475Z,15.50
2023-03-02T08:16:25.811Z,15.98
2023-03-02T08:17:57.836Z,15.15
2023-03-02T08:19:29.525Z,14.23
2023-03-02T08:21:01.202Z,14.32
2023-03-02T08:22:32.950Z,16.23
2023-03-02T08:24:05.537Z,12.52
2023-03-02T08:25:38.611Z,13.05
2023-03-02T08:27:15.133Z,15.18
2023-03-02T08:28:47.529Z,13.93
2023-03-02T08:30:19.449Z,13.70
2023-03-02T08:31:51.253Z,14.35
2023-03-02T08:33:22.896Z,15.32
2023-03-02T08:34:54.586Z,15.30
2023-03-02T08:36:26.517Z,14.40
2023-03-02T08:37:59.756Z,14.88
2023-03-02T08:39:32.279Z,14.77
2023-03-02T08:41:11.318Z,14.48
2023-03-02T08:42:42.958Z,15.02
2023-03-02T08:44:14.658Z,16.30
2023-03-02T08:45:50.567Z,13.60
2023-03-02T08:47:22.218Z,13.43
2023-03-02T08:48:53.915Z,14.32
2023-03-02T08:50:25.569Z,15.30
2023-03-02T08:51:59.194Z,13.73
2023-03-02T08:53:33.177Z,15.88
2023-03-02T08:55:05.570Z,16.60
2023-03-02T08:56:39.475Z,15.18
2023-03-02T08:58:11.092Z,15.77
2023-03-02T08:59:42.944Z,15.20
2023-03-02T09:01:26.329Z,14.20
2023-03-02T09:02:58.000Z,14.68
2023-03-02T09:04:29.671Z,14.57
2023-03-02T09:06:01.487Z,14.20
2023-03-02T09:07:33.270Z,15.68
2023-03-02T09:09:06.039Z,13.70
2023-03-02T09:10:37.959Z,16.35
2023-03-02T09:12:09.679Z,14.23
2023-03-02T09:13:42.161Z,15.48
2023-03-02T09:15:13.884Z,13.25
2023-03-02T09:16:46.286Z,12.85
2023-03-02T09:18:18.037Z,14.30
2023-03-02T09:19:49.683Z,14.45
2023-03-02T09:21:22.343Z,16.13
2023-03-02T09:22:54.004Z,14.30
2023-03-02T09:24:25.755Z,14.60
2023-03-02T09:25:57.450Z,14.68
2023-03-02T09:27:29.313Z,15.20
2023-03-02T09:29:01.109Z,14.25
2023-03-02T09:30:32.981Z,14.93
2023-03-02T09:32:04.986Z,15.13
2023-03-02T09:33:36.738Z,14.15
2023-03-02T09:35:08.991Z,15.07
2023-03-02T09:36:40.662Z,14.68
2023-03-02T09:38:16.103Z,13.93
2023-03-02T09:39:47.909Z,14.98
2023-03-02T09:41:29.974Z,14.52
2023-03-02T09:43:13.595Z,13.75
2023-03-02T09:45:13.525Z,17.08
2023-03-02T09:46:54.170Z,14.82
2023-03-02T09:49:04.230Z,14.20
2023-03-02T09:50:40.145Z,14.20
2023-03-02T09:52:33.821Z,13.40
2023-03-02T09:54:10.628Z,14.80
2023-03-02T09:55:42.283Z,13.88
2023-03-02T09:57:21.970Z,15.25
2023-03-02T09:59:03.252Z,15.95
2023-03-02T10:00:38.429Z,14.55
2023-03-02T10:02:28.249Z,16.15
2023-03-02T10:04:27.702Z,15.48
2023-03-02T10:05:59.427Z,14.55
2023-03-02T10:07:31.016Z,16.15
2023-03-02T10:09:02.797Z,15.52
2023-03-02T10:11:08.373Z,14.75
2023-03-02T10:12:52.163Z,16.08
2023-03-02T10:14:30.735Z,13.02
2023-03-02T10:16:13.780Z,15.77
2023-03-02T10:18:21.155Z,15.63
2023-03-02T10:20:27.597Z,14.07
2023-03-02T10:22:14.314Z,13.88
2023-03-02T10:23:57.264Z,50.60
2023-03-02T10:25:52.010Z,19.42
2023-03-02T10:27:41.745Z,14.68
2023-03-02T10:29:35.017Z,15.27
2023-03-02T10:31:33.797Z,15.35
2023-03-02T10:33:17.670Z,12.55
2023-03-02T10:34:53.216Z,13.55
2023-03-02T10:36:28.470Z,15.05
2023-03-02T10:38:13.069Z,13.93
2023-03-02T10:39:44.802Z,15.25
2023-03-02T10:41:33.273Z,16.02
2023-03-02T10:43:09.644Z,16.00
2023-03-02T10:44:50.419Z,15.93
2023-03-02T10:46:22.246Z,16.55
2023-03-02T10:48:06.218Z,15.40
2023-03-02T10:49:42.842Z,13.98
2023-03-02T10:51:26.549Z,15.52
2023-03-02T10:53:01.065Z,15.70
2023-03-02T10:54:35.342Z,15.77
2023-03-02T10:56:22.829Z,16.45
2023-03-02T10:58:21.214Z,15.65
2023-03-02T10:59:53.080Z,14.93
2023-03-02T11:01:24.792Z,14.20
2023-03-02T11:03:02.135Z,15.32
2023-03-02T11:04:34.927Z,14.98
2023-03-02T11:06:20.807Z,13.05
2023-03-02T11:08:03.169Z,15.40
2023-03-02T11:11:22.977Z,14.27
2023-03-02T11:12:55.031Z,14.52
2023-03-02T11:14:29.792Z,14.57
2023-03-02T11:16:23.942Z,13.75
2023-03-02T11:18:03.874Z,14.45
2023-03-02T11:19:39.521Z,17.45
2023-03-02T11:21:25.964Z,13.50
2023-03-02T11:23:31.615Z,15.10
2023-03-02T11:25:08.283Z,14.18
2023-03-02T11:26:48.129Z,14.25
2023-03-02T11:28:33.618Z,14.85
2023-03-02T11:30:20.281Z,14.45
2023-03-02T11:32:13.636Z,15.48
2023-03-02T11:34:15.646Z,15.00
2023-03-02T11:35:59.897Z,13.07
2023-03-02T11:39:39.166Z,13.88
2023-03-02T11:41:29.526Z,13.77
2023-03-02T11:43:04.883Z,15.00
2023-03-02T11:44:36.479Z,14.60
2023-03-02T11:46:23.358Z,14.75
2023-03-02T11:48:08.419Z,15.50
2023-03-02T11:49:46.153Z,15.35
2023-03-02T11:51:23.518Z,16.55
2023-03-02T11:52:59.344Z,15.35
2023-03-02T11:54:44.419Z,13.95
2023-03-02T11:56:16.159Z,14.88
2023-03-02T11:57:52.457Z,14.40
2023-03-02T11:59:27.521Z,13.82
2023-03-02T12:01:02.046Z,17.75
2023-03-02T12:02:33.660Z,17.33
2023-03-02T12:04:36.507Z,15.65
2023-03-02T12:06:26.935Z,13.65
2023-03-02T12:08:00.863Z,16.10
2023-03-02T12:09:37.618Z,14.43
2023-03-02T12:11:18.121Z,15.25
2023-03-02T12:13:00.504Z,14.00
2023-03-02T12:16:38.140Z,13.80
2023-03-02T12:18:26.583Z,14.15
2023-03-02T12:20:07.441Z,14.75
2023-03-02T12:21:41.483Z,15.82
2023-03-02T12:23:24.958Z,14.65
2023-03-02T12:25:03.989Z,15.57
2023-03-02T12:26:37.997Z,15.13
2023-03-02T12:28:27.266Z,14.40
2023-03-02T12:30:24.529Z,16.30
2023-03-02T12:31:57.049Z,13.52
2023-03-02T12:33:29.044Z,14.10
2023-03-02T12:35:10.743Z,14.68
2023-03-02T12:36:44.259Z,14.30
2023-03-02T12:38:36.911Z,13.77
2023-03-02T12:40:08.492Z,13.68
2023-03-02T12:41:50.312Z,13.07
2023-03-02T12:43:37.958Z,14.50
2023-03-02T12:45:35.816Z,14.07
2023-03-02T12:47:16.402Z,13.82
2023-03-02T12:49:13.689Z,14.32
2023-03-02T12:50:47.389Z,15.02
2023-03-02T12:52:27.866Z,15.82
2023-03-02T12:54:07.493Z,16.55
2023-03-02T12:55:39.075Z,13.90
2023-03-02T12:57:20.067Z,14.40
2023-03-02T12:58:52.886Z,15.70
2023-03-02T13:00:27.819Z,14.93
2023-03-02T13:02:11.146Z,15.90
2023-03-02T13:03:47.871Z,15.80
2023-03-02T13:05:25.793Z,13.40
2023-03-02T13:06:57.508Z,14.57
2023-03-02T13:08:30.234Z,15.18
2023-03-02T13:10:06.644Z,14.13
2023-03-02T13:11:38.843Z,14.18
2023-03-02T13:13:35.595Z,13.77
2023-03-02T13:15:15.552Z,16.92
2023-03-02T13:16:59.296Z,18.40
2023-03-02T13:18:36.801Z,16.65
2023-03-02T13:20:13.253Z,16.60
2023-03-02T13:21:44.980Z,16.23
2023-03-02T13:23:17.916Z,15.77
2023-03-02T13:24:55.549Z,16.90
2023-03-02T13:26:35.191Z,17.83
2023-03-02T13:28:24.414Z,17.75
2023-03-02T13:29:56.667Z,16.80
2023-03-02T13:31:29.288Z,18.73
2023-03-02T13:33:04.051Z,16.35
2023-03-02T13:34:36.267Z,16.08
2023-03-02T13:36:08.061Z,16.55
2023-03-02T13:37:43.899Z,16.25
2023-03-02T13:39:22.505Z,16.58
2023-03-02T13:40:55.841Z,15.43
2023-03-02T13:42:40.952Z,17.13
2023-03-02T13:44:23.123Z,15.85
2023-03-02T13:46:00.358Z,16.17
2023-03-02T13:47:31.987Z,14.60
2023-03-02T13:49:11.265Z,16.77
2023-03-02T13:50:56.680Z,15.38
2023-03-02T13:52:30.850Z,15.10
2023-03-02T13:54:06.058Z,17.23
2023-03-02T13:55:39.715Z,15.00
2023-03-02T13:57:16.534Z,16.98
2023-03-02T13:58:48.261Z,18.38
2023-03-02T14:00:26.678Z,17.20
2023-03-02T14:01:58.780Z,16.00
2023-03-02T14:03:31.291Z,16.67
2023-03-02T14:05:03.134Z,17.25
2023-03-02T14:06:35.122Z,18.95
2023-03-02T14:08:07.578Z,18.55
2023-03-02T14:09:39.222Z,20.08
2023-03-02T14:11:11.493Z,18.40
2023-03-02T14:12:51.172Z,19.70
2023-03-02T14:14:26.000Z,16.60
2023-03-02T14:15:57.618Z,16.30
2023-03-02T14:17:29.598Z,16.63
2023-03-02T14:19:02.020Z,16.52
2023-03-02T14:20:33.620Z,17.88
2023-03-02T14:22:05.264Z,16.98
2023-03-02T14:23:36.883Z,16.17
2023-03-02T14:25:08.812Z,16.90
2023-03-02T14:26:48.767Z,19.10
2023-03-02T14:28:33.214Z,18.52
2023-03-02T14:30:17.166Z,19.90
2023-03-02T14:31:49.336Z,17.48
2023-03-02T14:33:22.095Z,17.98
2023-03-02T14:34:53.807Z,17.40
2023-03-02T14:36:34.634Z,17.30
2023-03-02T14:38:06.364Z,18.10
2023-03-02T14:39:40.442Z,18.08
2023-03-02T14:41:24.283Z,17.60
2023-03-02T14:42:55.943Z,17.77
2023-03-02T14:44:27.765Z,16.88
2023-03-02T14:45:59.490Z,17.10
2023-03-02T14:47:31.945Z,17.48
2023-03-02T14:49:03.642Z,17.45
2023-03-02T14:50:39.856Z,18.08
2023-03-02T14:52:25.019Z,16.02
2023-03-02T14:54:00.235Z,16.77
2023-03-02T14:55:33.111Z,17.63
2023-03-02T14:57:07.915Z,16.00
2023-03-02T14:58:39.596Z,17.17
2023-03-02T15:00:15.437Z,17.58
2023-03-02T15:01:47.136Z,16.15
2023-03-02T15:03:22.676Z,18.17
2023-03-02T15:04:57.859Z,16.83
2023-03-02T15:06:32.073Z,17.83
2023-03-02T15:08:04.206Z,16.73
2023-03-02T15:09:35.824Z,17.80
2023-03-02T15:11:07.342Z,17.60
2023-03-02T15:12:38.919Z,18.38
2023-03-02T15:14:10.485Z,16.42
2023-03-02T15:15:44.563Z,16.77
2023-03-02T15:17:16.172Z,16.92
2023-03-02T15:18:52.621Z,16.00
2023-03-02T15:20:24.677Z,16.05
2023-03-02T15:21:57.458Z,16.70
2023-03-02T15:23:29.204Z,15.82
2023-03-02T15:25:00.906Z,16.75
2023-03-02T15:26:32.602Z,19.05
2023-03-02T15:28:04.673Z,16.95
2023-03-02T15:29:36.896Z,16.40
2023-03-02T15:31:15.969Z,16.85
2023-03-02T15:32:48.788Z,17.00
2023-03-02T15:34:20.948Z,16.90
2023-03-02T15:35:55.436Z,17.55
2023-03-02T15:37:27.610Z,18.02
2023-03-02T15:38:59.345Z,17.17
2023-03-02T15:40:31.357Z,16.42
2023-03-02T15:42:03.432Z,18.48
2023-03-02T15:43:35.169Z,15.88
2023-03-02T15:45:07.288Z,16.27
2023-03-02T15:46:39.192Z,15.10
2023-03-02T15:48:12.720Z,16.98
2023-03-02T15:49:45.723Z,18.67
2023-03-02T15:51:18.339Z,17.80
2023-03-02T15:52:51.961Z,18.15
2023-03-02T15:54:25.315Z,18.00
2023-03-02T15:55:57.281Z,17.23
2023-03-02T15:57:28.981Z,17.92
2023-03-02T15:59:00.757Z,16.73
2023-03-02T16:00:35.218Z,15.70
2023-03-02T16:02:07.391Z,16.00
2023-03-02T16:03:39.408Z,16.13
2023-03-02T16:05:11.412Z,17.30
2023-03-02T16:06:43.490Z,16.45
2023-03-02T16:08:15.467Z,18.33
2023-03-02T16:09:47.753Z,17.02
2023-03-02T16:11:23.378Z,16.25
2023-03-02T16:12:55.428Z,17.73
2023-03-02T16:14:27.589Z,16.80
2023-03-02T16:16:04.848Z,16.88
2023-03-02T16:17:36.607Z,17.40
2023-03-02T16:19:12.023Z,16.13
2023-03-02T16:20:44.191Z,17.02
2023-03-02T16:22:16.346Z,17.23
2023-03-02T16:23:48.757Z,17.52
2023-03-02T16:25:21.634Z,17.65
2023-03-02T16:26:54.058Z,17.67
2023-03-02T16:28:26.240Z,16.80
2023-03-02T16:29:58.157Z,17.98
2023-03-02T16:31:33.104Z,16.95
2023-03-02T16:33:08.278Z,17.25
2023-03-02T16:34:40.185Z,17.85
2023-03-02T16:36:13.083Z,16.77
2023-03-02T16:37:44.989Z,18.20
2023-03-02T16:39:17.281Z,17.17
2023-03-02T16:40:50.289Z,17.17
2023-03-02T16:42:21.895Z,17.25
2023-03-02T16:43:56.314Z,18.75
2023-03-02T16:45:28.167Z,16.30
2023-03-02T16:46:59.874Z,16.52
2023-03-02T16:48:31.467Z,18.13
2023-03-02T16:50:04.166Z,17.15
2023-03-02T16:51:36.151Z,19.23
2023-03-02T16:53:07.859Z,17.08
2023-03-02T16:54:39.497Z,19.02
2023-03-02T16:56:13.012Z,17.15
2023-03-02T16:57:45.086Z,18.75
2023-03-02T16:59:17.191Z,18.52
2023-03-02T17:00:49.330Z,17.30
2023-03-02T17:02:21.205Z,15.68
2023-03-02T17:03:53.024Z,17.95
2023-03-02T17:05:24.741Z,19.00
2023-03-02T17:07:00.865Z,19.95
2023-03-02T17:08:32.944Z,19.05
2023-03-02T17:10:06.287Z,18.75
2023-03-02T17:11:38.023Z,17.55
2023-03-02T17:13:12.042Z,19.27
2023-03-02T17:14:43.715Z,19.00
2023-03-02T17:16:16.826Z,18.33
2023-03-02T17:17:48.481Z,18.58
2023-03-02T17:19:22.278Z,17.48
2023-03-02T17:20:55.496Z,17.73
2023-03-02T17:22:27.248Z,16.83
2023-03-02T17:23:58.999Z,18.67
2023-03-02T17:25:30.911Z,17.63
2023-03-02T17:27:03.387Z,17.25
2023-03-02T17:28:35.993Z,17.35
2023-03-02T17:30:08.467Z,18.33
2023-03-02T17:31:40.187Z,17.50
2023-03-02T17:33:12.412Z,17.48
2023-03-02T17:34:44.150Z,17.25
2023-03-02T17:36:15.955Z,16.25
2023-03-02T17:37:48.024Z,17.50
2023-03-02T17:39:20.023Z,18.50
2023-03-02T17:40:51.836Z,18.77
2023-03-02T17:42:23.557Z,18.17
2023-03-02T17:43:55.419Z,17.77
2023-03-02T17:45:28.617Z,19.35
2023-03-02T17:47:05.356Z,17.95
2023-03-02T17:48:37.022Z,19.35
2023-03-02T17:50:09.385Z,18.02
2023-03-02T17:51:41.180Z,17.95
2023-03-02T17:53:12.901Z,18.35
2023-03-02T17:54:45.096Z,18.35
2023-03-02T17:56:19.788Z,20.42
2023-03-02T17:57:51.703Z,20.00
2023-03-02T17:59:23.505Z,18.88
2023-03-02T18:00:55.166Z,20.63
2023-03-02T18:02:27.041Z,20.33
2023-03-02T18:03:59.301Z,19.45
2023-03-02T18:05:31.177Z,21.35
2023-03-02T18:07:02.798Z,17.50
2023-03-02T18:08:34.473Z,19.98
2023-03-02T18:10:07.342Z,18.85
2023-03-02T18:11:41.439Z,21.85
2023-03-02T18:13:13.305Z,19.55
2023-03-02T18:14:45.113Z,22.27
2023-03-02T18:16:17.025Z,23.75
2023-03-02T18:17:48.857Z,23.35
2023-03-02T18:19:20.566Z,23.42
2023-03-02T18:20:55.205Z,19.75
2023-03-02T18:22:27.111Z,20.65
2023-03-02T18:23:58.942Z,21.05
2023-03-02T18:25:30.709Z,20.77
2023-03-02T18:27:02.610Z,21.45
2023-03-02T18:28:34.430Z,21.75
2023-03-02T18:30:06.607Z,19.33
2023-03-02T18:31:38.523Z,21.35
2023-03-02T18:33:10.352Z,21.13
2023-03-02T18:34:42.640Z,22.77
2023-03-02T18:36:14.518Z,21.35
2023-03-02T18:37:46.260Z,20.95
2023-03-02T18:39:18.003Z,22.83
2023-03-02T18:40:49.711Z,22.90
2023-03-02T18:42:22.460Z,21.13
2023-03-02T18:43:54.166Z,21.30
2023-03-02T18:45:28.828Z,22.73
2023-03-02T18:47:01.012Z,20.83
2023-03-02T18:48:33.107Z,20.35
2023-03-02T18:50:05.220Z,22.55
2023-03-02T18:51:36.951Z,20.70
2023-03-02T18:53:08.644Z,20.55
2023-03-02T18:54:40.466Z,19.73
2023-03-02T18:56:12.697Z,20.75
2023-03-02T18:57:44.781Z,21.08
2023-03-02T18:59:17.850Z,20.00
2023-03-02T19:00:49.854Z,20.65
2023-03-02T19:02:21.592Z,20.33
2023-03-02T19:03:56.937Z,19.27
2023-03-02T19:05:29.692Z,22.65
2023-03-02T19:07:02.933Z,22.20
2023-03-02T19:08:36.376Z,23.42
2023-03-02T19:10:09.021Z,22.55
2023-03-02T19:11:40.715Z,21.77
2023-03-02T19:13:12.546Z,22.98
2023-03-02T19:14:44.514Z,22.30
2023-03-02T19:16:18.233Z,21.33
2023-03-02T19:17:51.762Z,20.75
2023-03-02T19:19:23.540Z,21.77
2023-03-02T19:20:55.802Z,20.50
2023-03-02T19:22:27.589Z,20.73
2023-03-02T19:23:59.313Z,19.27
2023-03-02T19:25:31.121Z,19.58
2023-03-02T19:27:02.863Z,20.15
2023-03-02T19:28:35.089Z,21.40
2023-03-02T19:30:08.870Z,20.60
2023-03-02T19:31:40.838Z,20.90
2023-03-02T19:33:12.599Z,19.92
2023-03-02T19:34:44.402Z,22.38
2023-03-02T19:36:16.154Z,23.90
2023-03-02T19:37:47.846Z,20.25
2023-03-02T19:39:19.657Z,23.15
2023-03-02T19:40:51.354Z,20.48
2023-03-02T19:42:23.077Z,22.02
2023-03-02T19:43:54.918Z,22.65
2023-03-02T19:45:29.650Z,19.42
2023-03-02T19:47:01.540Z,20.90
2023-03-02T19:48:35.667Z,20.85
2023-03-02T19:50:08.342Z,21.98
2023-03-02T19:51:40.102Z,20.42
2023-03-02T19:53:12.437Z,22.80
2023-03-02T19:54:44.121Z,21.48
2023-03-02T19:56:16.464Z,21.42
2023-03-02T19:57:51.484Z,20.88
2023-03-02T19:59:24.468Z,22.05
2023-03-02T20:00:56.401Z,21.75
2023-03-02T20:02:28.133Z,23.05
2023-03-02T20:04:00.211Z,22.35
2023-03-02T20:05:31.996Z,24.42
2023-03-02T20:07:03.833Z,22.20
2023-03-02T20:08:35.854Z,20.20
2023-03-02T20:10:09.254Z,23.50
2023-03-02T20:11:41.202Z,22.33
2023-03-02T20:13:13.061Z,25.20
2023-03-02T20:14:49.300Z,41.83
2023-03-02T20:16:22.919Z,42.25
2023-03-02T20:17:54.866Z,37.72
2023-03-02T20:19:26.705Z,38.45
2023-03-02T20:20:58.456Z,37.10
2023-03-02T20:22:30.241Z,32.03
2023-03-02T20:24:02.299Z,27.30
2023-03-02T20:25:34.584Z,28.10